Aviation Digital Data Service (ADDS)

Output produced by METARs form (1645 UTC 23 September 2020)
found at http://aviationweather.gov/metar/data/
 
KSHV 231556Z 02008KT 10SM BKN006 OVC009 21/18 A2990 RMK AO2 RAB17E53 SLP123 P0001 T02060183
KSHV 231143Z 2312/2412 05008KT P6SM -RA OVC006 
     TEMPO 2312/2315 02012KT 2SM +SHRA BR OVC005 
     FM231800 02014KT 3SM -DZ BR OVC007 
     FM232100 03014KT 4SM BR OVC004 
     FM240600 36012KT P6SM OVC007 
     FM240900 36013KT P6SM OVC015